sensor_id;sensor_type;location;lat;lon;timestamp;P1;durP1;ratioP1;P2;durP2;ratioP2
5898;SDS011;2975;50.956;6.962;2024-03-02T00:00:15;1.57;;;1.40;;
5898;SDS011;2975;50.956;6.962;2024-03-02T00:02:44;1.67;;;1.57;;
5898;SDS011;2975;50.956;6.962;2024-03-02T00:05:11;2.93;;;1.30;;
5898;SDS011;2975;50.956;6.962;2024-03-02T00:07:42;4.17;;;1.40;;
5898;SDS011;2975;50.956;6.962;2024-03-02T00:10:09;2.77;;;1.30;;
5898;SDS011;2975;50.956;6.962;2024-03-02T00:12:36;1.33;;;1.23;;
5898;SDS011;2975;50.956;6.962;2024-03-02T00:15:07;2.37;;;1.70;;
5898;SDS011;2975;50.956;6.962;2024-03-02T00:17:51;3.17;;;1.50;;
5898;SDS011;2975;50.956;6.962;2024-03-02T00:20:18;1.57;;;1.43;;
5898;SDS011;2975;50.956;6.962;2024-03-02T00:22:47;1.50;;;1.40;;
5898;SDS011;2975;50.956;6.962;2024-03-02T00:25:14;1.90;;;1.50;;
5898;SDS011;2975;50.956;6.962;2024-03-02T00:27:39;1.47;;;1.33;;
5898;SDS011;2975;50.956;6.962;2024-03-02T00:33:08;1.63;;;1.40;;
5898;SDS011;2975;50.956;6.962;2024-03-02T00:35:35;3.30;;;1.47;;
5898;SDS011;2975;50.956;6.962;2024-03-02T00:38:06;1.40;;;1.30;;
5898;SDS011;2975;50.956;6.962;2024-03-02T00:40:32;2.07;;;1.10;;
5898;SDS011;2975;50.956;6.962;2024-03-02T00:42:58;2.80;;;1.40;;
5898;SDS011;2975;50.956;6.962;2024-03-02T00:45:25;1.53;;;1.40;;
5898;SDS011;2975;50.956;6.962;2024-03-02T00:47:51;1.50;;;1.33;;
5898;SDS011;2975;50.956;6.962;2024-03-02T00:50:17;1.70;;;1.30;;
5898;SDS011;2975;50.956;6.962;2024-03-02T00:52:43;1.83;;;1.50;;
5898;SDS011;2975;50.956;6.962;2024-03-02T00:55:09;1.83;;;1.30;;
5898;SDS011;2975;50.956;6.962;2024-03-02T00:57:35;1.37;;;1.27;;
5898;SDS011;2975;50.956;6.962;2024-03-02T01:00:00;1.57;;;1.23;;
5898;SDS011;2975;50.956;6.962;2024-03-02T01:02:27;2.27;;;1.50;;
5898;SDS011;2975;50.956;6.962;2024-03-02T01:04:54;2.30;;;1.83;;
5898;SDS011;2975;50.956;6.962;2024-03-02T01:07:19;1.97;;;1.57;;
5898;SDS011;2975;50.956;6.962;2024-03-02T01:09:45;1.37;;;1.27;;
5898;SDS011;2975;50.956;6.962;2024-03-02T01:12:12;1.53;;;1.10;;
5898;SDS011;2975;50.956;6.962;2024-03-02T01:14:37;1.73;;;1.10;;
5898;SDS011;2975;50.956;6.962;2024-03-02T01:17:05;1.50;;;1.30;;
5898;SDS011;2975;50.956;6.962;2024-03-02T01:19:30;3.03;;;1.43;;
5898;SDS011;2975;50.956;6.962;2024-03-02T01:21:56;1.70;;;1.10;;
5898;SDS011;2975;50.956;6.962;2024-03-02T01:24:21;1.37;;;1.27;;
5898;SDS011;2975;50.956;6.962;2024-03-02T01:26:47;1.63;;;1.10;;
5898;SDS011;2975;50.956;6.962;2024-03-02T01:29:13;2.70;;;1.03;;
5898;SDS011;2975;50.956;6.962;2024-03-02T01:31:40;1.57;;;1.00;;
5898;SDS011;2975;50.956;6.962;2024-03-02T01:34:07;1.43;;;1.20;;
5898;SDS011;2975;50.956;6.962;2024-03-02T01:36:33;1.70;;;1.10;;
5898;SDS011;2975;50.956;6.962;2024-03-02T01:38:58;2.20;;;1.27;;
5898;SDS011;2975;50.956;6.962;2024-03-02T01:41:24;1.20;;;1.10;;
5898;SDS011;2975;50.956;6.962;2024-03-02T01:43:50;1.40;;;1.23;;
5898;SDS011;2975;50.956;6.962;2024-03-02T01:46:16;1.97;;;1.20;;
5898;SDS011;2975;50.956;6.962;2024-03-02T01:48:42;1.27;;;1.10;;
5898;SDS011;2975;50.956;6.962;2024-03-02T01:51:08;2.53;;;1.17;;
5898;SDS011;2975;50.956;6.962;2024-03-02T01:53:35;1.33;;;1.23;;
5898;SDS011;2975;50.956;6.962;2024-03-02T01:56:01;1.50;;;1.30;;
5898;SDS011;2975;50.956;6.962;2024-03-02T01:58:27;1.20;;;1.10;;
5898;SDS011;2975;50.956;6.962;2024-03-02T02:00:53;1.57;;;1.00;;
5898;SDS011;2975;50.956;6.962;2024-03-02T02:03:18;1.40;;;1.30;;
5898;SDS011;2975;50.956;6.962;2024-03-02T02:05:44;1.20;;;1.00;;
5898;SDS011;2975;50.956;6.962;2024-03-02T02:08:12;3.10;;;2.00;;
5898;SDS011;2975;50.956;6.962;2024-03-02T02:10:38;1.77;;;1.10;;
5898;SDS011;2975;50.956;6.962;2024-03-02T02:13:03;1.70;;;1.07;;
5898;SDS011;2975;50.956;6.962;2024-03-02T02:15:29;2.50;;;1.00;;
5898;SDS011;2975;50.956;6.962;2024-03-02T02:17:56;2.20;;;1.27;;
5898;SDS011;2975;50.956;6.962;2024-03-02T02:20:23;1.20;;;1.10;;
5898;SDS011;2975;50.956;6.962;2024-03-02T02:22:55;1.10;;;1.07;;
5898;SDS011;2975;50.956;6.962;2024-03-02T02:25:21;3.07;;;1.77;;
5898;SDS011;2975;50.956;6.962;2024-03-02T02:27:46;1.47;;;1.37;;
5898;SDS011;2975;50.956;6.962;2024-03-02T02:30:13;2.10;;;1.30;;
5898;SDS011;2975;50.956;6.962;2024-03-02T02:32:43;1.23;;;1.00;;
5898;SDS011;2975;50.956;6.962;2024-03-02T02:35:09;1.60;;;1.30;;
5898;SDS011;2975;50.956;6.962;2024-03-02T02:37:36;2.00;;;1.00;;
5898;SDS011;2975;50.956;6.962;2024-03-02T02:40:02;2.80;;;1.20;;
5898;SDS011;2975;50.956;6.962;2024-03-02T02:42:29;1.73;;;1.10;;
5898;SDS011;2975;50.956;6.962;2024-03-02T02:44:55;1.80;;;1.13;;
5898;SDS011;2975;50.956;6.962;2024-03-02T02:47:21;1.23;;;0.93;;
5898;SDS011;2975;50.956;6.962;2024-03-02T02:49:46;3.70;;;1.97;;
5898;SDS011;2975;50.956;6.962;2024-03-02T02:52:12;1.20;;;1.10;;
5898;SDS011;2975;50.956;6.962;2024-03-02T02:54:39;2.83;;;1.23;;
5898;SDS011;2975;50.956;6.962;2024-03-02T02:57:05;1.43;;;1.10;;
5898;SDS011;2975;50.956;6.962;2024-03-02T02:59:31;1.47;;;1.20;;
5898;SDS011;2975;50.956;6.962;2024-03-02T03:01:57;1.30;;;1.20;;
5898;SDS011;2975;50.956;6.962;2024-03-02T03:04:22;2.67;;;1.17;;
5898;SDS011;2975;50.956;6.962;2024-03-02T03:06:48;1.47;;;1.30;;
5898;SDS011;2975;50.956;6.962;2024-03-02T03:09:13;0.87;;;0.87;;
5898;SDS011;2975;50.956;6.962;2024-03-02T03:11:40;2.27;;;0.93;;
5898;SDS011;2975;50.956;6.962;2024-03-02T03:14:06;3.20;;;1.37;;
5898;SDS011;2975;50.956;6.962;2024-03-02T03:16:31;1.30;;;1.17;;
5898;SDS011;2975;50.956;6.962;2024-03-02T03:18:57;1.17;;;1.07;;
5898;SDS011;2975;50.956;6.962;2024-03-02T03:21:22;1.20;;;1.10;;
5898;SDS011;2975;50.956;6.962;2024-03-02T03:23:48;4.57;;;1.10;;
5898;SDS011;2975;50.956;6.962;2024-03-02T03:26:14;2.63;;;1.50;;
5898;SDS011;2975;50.956;6.962;2024-03-02T03:28:39;2.33;;;1.40;;
5898;SDS011;2975;50.956;6.962;2024-03-02T03:31:06;1.87;;;1.10;;
5898;SDS011;2975;50.956;6.962;2024-03-02T03:33:32;2.83;;;1.00;;
5898;SDS011;2975;50.956;6.962;2024-03-02T03:35:58;2.20;;;1.20;;
5898;SDS011;2975;50.956;6.962;2024-03-02T03:38:24;0.93;;;0.90;;
5898;SDS011;2975;50.956;6.962;2024-03-02T03:40:50;1.53;;;1.20;;
5898;SDS011;2975;50.956;6.962;2024-03-02T03:43:15;1.33;;;1.07;;
5898;SDS011;2975;50.956;6.962;2024-03-02T03:45:41;0.97;;;0.93;;
5898;SDS011;2975;50.956;6.962;2024-03-02T03:48:07;1.30;;;1.20;;
5898;SDS011;2975;50.956;6.962;2024-03-02T03:50:34;1.20;;;1.10;;
5898;SDS011;2975;50.956;6.962;2024-03-02T03:52:59;1.63;;;1.30;;
5898;SDS011;2975;50.956;6.962;2024-03-02T03:55:25;1.63;;;1.10;;
5898;SDS011;2975;50.956;6.962;2024-03-02T03:57:50;1.27;;;0.90;;
5898;SDS011;2975;50.956;6.962;2024-03-02T04:00:16;2.10;;;1.10;;
5898;SDS011;2975;50.956;6.962;2024-03-02T04:02:42;2.20;;;1.70;;
5898;SDS011;2975;50.956;6.962;2024-03-02T04:05:08;1.20;;;1.10;;
5898;SDS011;2975;50.956;6.962;2024-03-02T04:07:36;1.90;;;1.10;;
5898;SDS011;2975;50.956;6.962;2024-03-02T04:10:08;2.87;;;1.30;;
5898;SDS011;2975;50.956;6.962;2024-03-02T04:12:35;1.60;;;1.23;;
5898;SDS011;2975;50.956;6.962;2024-03-02T04:15:02;1.73;;;1.13;;
5898;SDS011;2975;50.956;6.962;2024-03-02T04:17:32;1.67;;;1.37;;
5898;SDS011;2975;50.956;6.962;2024-03-02T04:19:58;1.20;;;1.10;;
5898;SDS011;2975;50.956;6.962;2024-03-02T04:22:27;1.50;;;1.03;;
5898;SDS011;2975;50.956;6.962;2024-03-02T04:24:52;2.00;;;1.20;;
5898;SDS011;2975;50.956;6.962;2024-03-02T04:27:19;1.40;;;1.30;;
5898;SDS011;2975;50.956;6.962;2024-03-02T04:29:44;1.20;;;1.10;;
5898;SDS011;2975;50.956;6.962;2024-03-02T04:32:10;4.57;;;1.47;;
5898;SDS011;2975;50.956;6.962;2024-03-02T04:34:36;1.33;;;1.27;;
5898;SDS011;2975;50.956;6.962;2024-03-02T04:37:02;1.30;;;1.20;;
5898;SDS011;2975;50.956;6.962;2024-03-02T04:39:28;1.20;;;1.10;;
5898;SDS011;2975;50.956;6.962;2024-03-02T04:41:54;1.60;;;1.20;;
5898;SDS011;2975;50.956;6.962;2024-03-02T04:44:19;1.00;;;1.00;;
5898;SDS011;2975;50.956;6.962;2024-03-02T04:46:45;1.30;;;1.20;;
5898;SDS011;2975;50.956;6.962;2024-03-02T04:49:10;1.33;;;1.23;;
5898;SDS011;2975;50.956;6.962;2024-03-02T04:51:36;1.60;;;1.10;;
5898;SDS011;2975;50.956;6.962;2024-03-02T04:54:01;2.80;;;1.17;;
5898;SDS011;2975;50.956;6.962;2024-03-02T04:56:27;1.37;;;1.27;;
5898;SDS011;2975;50.956;6.962;2024-03-02T04:58:56;2.43;;;1.07;;
5898;SDS011;2975;50.956;6.962;2024-03-02T05:01:21;1.77;;;1.13;;
5898;SDS011;2975;50.956;6.962;2024-03-02T05:03:48;2.23;;;1.40;;
5898;SDS011;2975;50.956;6.962;2024-03-02T05:06:14;1.83;;;1.33;;
5898;SDS011;2975;50.956;6.962;2024-03-02T05:08:39;2.77;;;1.53;;
5898;SDS011;2975;50.956;6.962;2024-03-02T05:11:06;1.63;;;1.23;;
5898;SDS011;2975;50.956;6.962;2024-03-02T05:13:50;1.47;;;1.30;;
5898;SDS011;2975;50.956;6.962;2024-03-02T05:16:16;2.20;;;1.10;;
5898;SDS011;2975;50.956;6.962;2024-03-02T05:18:42;2.60;;;1.30;;
5898;SDS011;2975;50.956;6.962;2024-03-02T05:21:07;4.73;;;1.50;;
5898;SDS011;2975;50.956;6.962;2024-03-02T05:23:33;4.07;;;1.37;;
5898;SDS011;2975;50.956;6.962;2024-03-02T05:25:58;2.50;;;1.47;;
5898;SDS011;2975;50.956;6.962;2024-03-02T05:28:24;1.67;;;1.30;;
5898;SDS011;2975;50.956;6.962;2024-03-02T05:30:50;2.40;;;1.50;;
5898;SDS011;2975;50.956;6.962;2024-03-02T05:33:15;1.73;;;1.50;;
5898;SDS011;2975;50.956;6.962;2024-03-02T05:35:43;1.63;;;1.20;;
5898;SDS011;2975;50.956;6.962;2024-03-02T05:38:09;1.93;;;1.40;;
5898;SDS011;2975;50.956;6.962;2024-03-02T05:40:34;2.07;;;1.40;;
5898;SDS011;2975;50.956;6.962;2024-03-02T05:43:00;3.33;;;1.53;;
5898;SDS011;2975;50.956;6.962;2024-03-02T05:45:26;2.27;;;1.43;;
5898;SDS011;2975;50.956;6.962;2024-03-02T05:47:51;2.13;;;1.30;;
5898;SDS011;2975;50.956;6.962;2024-03-02T05:50:17;2.17;;;1.40;;
5898;SDS011;2975;50.956;6.962;2024-03-02T05:52:45;2.60;;;1.40;;
5898;SDS011;2975;50.956;6.962;2024-03-02T05:55:10;2.80;;;1.90;;
5898;SDS011;2975;50.956;6.962;2024-03-02T05:57:36;2.63;;;1.70;;
5898;SDS011;2975;50.956;6.962;2024-03-02T06:00:08;2.57;;;1.80;;
5898;SDS011;2975;50.956;6.962;2024-03-02T06:02:34;2.67;;;1.50;;
5898;SDS011;2975;50.956;6.962;2024-03-02T06:05:00;2.37;;;1.43;;
5898;SDS011;2975;50.956;6.962;2024-03-02T06:07:26;2.37;;;1.50;;
5898;SDS011;2975;50.956;6.962;2024-03-02T06:09:51;2.70;;;1.53;;
5898;SDS011;2975;50.956;6.962;2024-03-02T06:12:18;3.77;;;2.63;;
5898;SDS011;2975;50.956;6.962;2024-03-02T06:14:44;3.40;;;1.37;;
5898;SDS011;2975;50.956;6.962;2024-03-02T06:17:09;1.50;;;1.40;;
5898;SDS011;2975;50.956;6.962;2024-03-02T06:19:35;2.03;;;1.70;;
5898;SDS011;2975;50.956;6.962;2024-03-02T06:22:01;4.93;;;1.70;;
5898;SDS011;2975;50.956;6.962;2024-03-02T06:24:28;4.20;;;1.50;;
5898;SDS011;2975;50.956;6.962;2024-03-02T06:26:54;2.37;;;1.60;;
5898;SDS011;2975;50.956;6.962;2024-03-02T06:29:20;1.73;;;1.50;;
5898;SDS011;2975;50.956;6.962;2024-03-02T06:31:46;1.90;;;1.43;;
5898;SDS011;2975;50.956;6.962;2024-03-02T06:34:12;2.87;;;1.73;;
5898;SDS011;2975;50.956;6.962;2024-03-02T06:36:38;1.87;;;1.53;;
5898;SDS011;2975;50.956;6.962;2024-03-02T06:39:05;3.67;;;2.10;;
5898;SDS011;2975;50.956;6.962;2024-03-02T06:41:31;3.23;;;1.60;;
5898;SDS011;2975;50.956;6.962;2024-03-02T06:43:56;3.07;;;1.70;;
5898;SDS011;2975;50.956;6.962;2024-03-02T06:46:27;5.70;;;1.90;;
5898;SDS011;2975;50.956;6.962;2024-03-02T06:48:53;2.17;;;1.40;;
5898;SDS011;2975;50.956;6.962;2024-03-02T06:51:18;3.27;;;1.80;;
5898;SDS011;2975;50.956;6.962;2024-03-02T06:53:44;4.23;;;1.93;;
5898;SDS011;2975;50.956;6.962;2024-03-02T06:56:11;2.37;;;1.43;;
5898;SDS011;2975;50.956;6.962;2024-03-02T06:58:38;2.10;;;1.53;;
5898;SDS011;2975;50.956;6.962;2024-03-02T07:01:03;2.13;;;1.70;;
5898;SDS011;2975;50.956;6.962;2024-03-02T07:03:29;2.23;;;1.87;;
5898;SDS011;2975;50.956;6.962;2024-03-02T07:05:55;1.90;;;1.60;;
5898;SDS011;2975;50.956;6.962;2024-03-02T07:08:21;1.93;;;1.73;;
5898;SDS011;2975;50.956;6.962;2024-03-02T07:10:46;4.83;;;1.83;;
5898;SDS011;2975;50.956;6.962;2024-03-02T07:13:12;3.97;;;2.07;;
5898;SDS011;2975;50.956;6.962;2024-03-02T07:15:38;4.13;;;1.80;;
5898;SDS011;2975;50.956;6.962;2024-03-02T07:18:22;2.10;;;1.80;;
5898;SDS011;2975;50.956;6.962;2024-03-02T07:20:48;1.83;;;1.73;;
5898;SDS011;2975;50.956;6.962;2024-03-02T07:23:14;2.33;;;1.83;;
5898;SDS011;2975;50.956;6.962;2024-03-02T07:25:40;2.20;;;2.00;;
5898;SDS011;2975;50.956;6.962;2024-03-02T07:28:06;3.63;;;2.00;;
5898;SDS011;2975;50.956;6.962;2024-03-02T07:30:32;4.40;;;2.03;;
5898;SDS011;2975;50.956;6.962;2024-03-02T07:32:58;2.73;;;2.07;;
5898;SDS011;2975;50.956;6.962;2024-03-02T07:35:24;2.17;;;1.77;;
5898;SDS011;2975;50.956;6.962;2024-03-02T07:37:54;2.80;;;2.20;;
5898;SDS011;2975;50.956;6.962;2024-03-02T07:40:20;4.83;;;2.17;;
5898;SDS011;2975;50.956;6.962;2024-03-02T07:42:46;2.60;;;1.90;;
5898;SDS011;2975;50.956;6.962;2024-03-02T07:45:12;4.07;;;1.90;;
5898;SDS011;2975;50.956;6.962;2024-03-02T07:47:43;2.50;;;1.90;;
5898;SDS011;2975;50.956;6.962;2024-03-02T07:50:08;2.97;;;2.00;;
5898;SDS011;2975;50.956;6.962;2024-03-02T07:52:34;4.50;;;1.83;;
5898;SDS011;2975;50.956;6.962;2024-03-02T07:55:00;3.33;;;2.00;;
5898;SDS011;2975;50.956;6.962;2024-03-02T07:57:26;4.87;;;2.33;;
5898;SDS011;2975;50.956;6.962;2024-03-02T07:59:52;2.30;;;1.73;;
5898;SDS011;2975;50.956;6.962;2024-03-02T08:02:18;3.43;;;2.50;;
5898;SDS011;2975;50.956;6.962;2024-03-02T08:04:44;2.27;;;2.07;;
5898;SDS011;2975;50.956;6.962;2024-03-02T08:07:11;2.57;;;1.80;;
5898;SDS011;2975;50.956;6.962;2024-03-02T08:09:39;3.00;;;2.33;;
5898;SDS011;2975;50.956;6.962;2024-03-02T08:12:05;4.20;;;2.20;;
5898;SDS011;2975;50.956;6.962;2024-03-02T08:14:31;3.67;;;2.20;;
5898;SDS011;2975;50.956;6.962;2024-03-02T08:16:56;2.63;;;1.87;;
5898;SDS011;2975;50.956;6.962;2024-03-02T08:19:22;2.40;;;1.97;;
5898;SDS011;2975;50.956;6.962;2024-03-02T08:21:48;3.90;;;2.00;;
5898;SDS011;2975;50.956;6.962;2024-03-02T08:24:14;3.03;;;2.07;;
5898;SDS011;2975;50.956;6.962;2024-03-02T08:26:42;2.63;;;2.10;;
5898;SDS011;2975;50.956;6.962;2024-03-02T08:29:07;4.50;;;2.07;;
5898;SDS011;2975;50.956;6.962;2024-03-02T08:31:33;3.03;;;2.20;;
5898;SDS011;2975;50.956;6.962;2024-03-02T08:33:58;5.93;;;2.10;;
5898;SDS011;2975;50.956;6.962;2024-03-02T08:36:25;3.47;;;2.00;;
5898;SDS011;2975;50.956;6.962;2024-03-02T08:38:51;3.87;;;1.73;;
5898;SDS011;2975;50.956;6.962;2024-03-02T08:41:16;2.10;;;1.73;;
5898;SDS011;2975;50.956;6.962;2024-03-02T08:43:43;2.73;;;1.63;;
5898;SDS011;2975;50.956;6.962;2024-03-02T08:46:09;1.97;;;1.40;;
5898;SDS011;2975;50.956;6.962;2024-03-02T08:48:35;2.27;;;1.50;;
5898;SDS011;2975;50.956;6.962;2024-03-02T08:51:00;2.93;;;1.60;;
5898;SDS011;2975;50.956;6.962;2024-03-02T08:53:27;2.80;;;1.53;;
5898;SDS011;2975;50.956;6.962;2024-03-02T08:55:53;2.30;;;1.50;;
5898;SDS011;2975;50.956;6.962;2024-03-02T08:58:20;2.00;;;1.60;;
5898;SDS011;2975;50.956;6.962;2024-03-02T09:00:46;3.77;;;1.80;;
5898;SDS011;2975;50.956;6.962;2024-03-02T09:03:12;3.33;;;1.30;;
5898;SDS011;2975;50.956;6.962;2024-03-02T09:05:38;1.93;;;1.30;;
5898;SDS011;2975;50.956;6.962;2024-03-02T09:08:03;2.93;;;1.33;;
5898;SDS011;2975;50.956;6.962;2024-03-02T09:10:29;1.43;;;1.20;;
5898;SDS011;2975;50.956;6.962;2024-03-02T09:12:56;1.93;;;1.63;;
5898;SDS011;2975;50.956;6.962;2024-03-02T09:15:22;4.53;;;1.57;;
5898;SDS011;2975;50.956;6.962;2024-03-02T09:17:47;2.40;;;1.70;;
5898;SDS011;2975;50.956;6.962;2024-03-02T09:20:13;1.60;;;1.50;;
5898;SDS011;2975;50.956;6.962;2024-03-02T09:22:39;2.17;;;1.63;;
5898;SDS011;2975;50.956;6.962;2024-03-02T09:25:05;3.03;;;1.93;;
5898;SDS011;2975;50.956;6.962;2024-03-02T09:27:35;3.30;;;1.70;;
5898;SDS011;2975;50.956;6.962;2024-03-02T09:30:01;1.40;;;1.30;;
5898;SDS011;2975;50.956;6.962;2024-03-02T09:32:29;1.33;;;1.20;;
5898;SDS011;2975;50.956;6.962;2024-03-02T09:34:54;2.00;;;1.30;;
5898;SDS011;2975;50.956;6.962;2024-03-02T09:37:20;2.20;;;1.37;;
5898;SDS011;2975;50.956;6.962;2024-03-02T09:39:46;2.40;;;1.63;;
5898;SDS011;2975;50.956;6.962;2024-03-02T09:42:12;1.80;;;1.27;;
5898;SDS011;2975;50.956;6.962;2024-03-02T09:44:38;1.30;;;1.20;;
5898;SDS011;2975;50.956;6.962;2024-03-02T09:47:06;1.73;;;1.23;;
5898;SDS011;2975;50.956;6.962;2024-03-02T09:49:32;4.00;;;1.73;;
5898;SDS011;2975;50.956;6.962;2024-03-02T09:51:58;2.10;;;1.20;;
5898;SDS011;2975;50.956;6.962;2024-03-02T09:54:24;4.90;;;1.60;;
5898;SDS011;2975;50.956;6.962;2024-03-02T09:56:50;3.43;;;1.30;;
5898;SDS011;2975;50.956;6.962;2024-03-02T09:59:16;1.90;;;1.30;;
5898;SDS011;2975;50.956;6.962;2024-03-02T10:02:00;1.37;;;1.17;;
5898;SDS011;2975;50.956;6.962;2024-03-02T10:04:27;1.37;;;1.20;;
5898;SDS011;2975;50.956;6.962;2024-03-02T10:07:09;4.93;;;1.20;;
5898;SDS011;2975;50.956;6.962;2024-03-02T10:09:46;4.03;;;1.30;;
5898;SDS011;2975;50.956;6.962;2024-03-02T10:12:16;1.80;;;1.10;;
5898;SDS011;2975;50.956;6.962;2024-03-02T10:14:42;1.60;;;1.10;;
5898;SDS011;2975;50.956;6.962;2024-03-02T10:17:13;4.20;;;1.50;;
5898;SDS011;2975;50.956;6.962;2024-03-02T10:19:40;2.97;;;1.40;;
5898;SDS011;2975;50.956;6.962;2024-03-02T10:22:06;2.20;;;1.30;;
5898;SDS011;2975;50.956;6.962;2024-03-02T10:24:44;2.00;;;1.30;;
5898;SDS011;2975;50.956;6.962;2024-03-02T10:27:11;4.07;;;1.47;;
5898;SDS011;2975;50.956;6.962;2024-03-02T10:29:40;1.33;;;0.97;;
5898;SDS011;2975;50.956;6.962;2024-03-02T10:32:10;1.47;;;1.20;;
5898;SDS011;2975;50.956;6.962;2024-03-02T10:34:36;2.43;;;1.30;;
5898;SDS011;2975;50.956;6.962;2024-03-02T10:37:05;3.17;;;1.30;;
5898;SDS011;2975;50.956;6.962;2024-03-02T10:39:32;3.00;;;1.47;;
5898;SDS011;2975;50.956;6.962;2024-03-02T10:42:00;2.23;;;1.40;;
5898;SDS011;2975;50.956;6.962;2024-03-02T10:44:28;3.17;;;1.50;;
5898;SDS011;2975;50.956;6.962;2024-03-02T10:46:55;2.50;;;1.10;;
5898;SDS011;2975;50.956;6.962;2024-03-02T10:49:22;4.03;;;1.33;;
5898;SDS011;2975;50.956;6.962;2024-03-02T10:51:51;1.50;;;1.20;;
5898;SDS011;2975;50.956;6.962;2024-03-02T10:54:16;2.10;;;0.97;;
5898;SDS011;2975;50.956;6.962;2024-03-02T10:56:44;1.23;;;1.13;;
5898;SDS011;2975;50.956;6.962;2024-03-02T11:01:55;3.13;;;1.37;;
5898;SDS011;2975;50.956;6.962;2024-03-02T11:04:28;1.27;;;1.13;;
5898;SDS011;2975;50.956;6.962;2024-03-02T11:06:56;2.47;;;1.10;;
5898;SDS011;2975;50.956;6.962;2024-03-02T11:09:25;2.90;;;1.40;;
5898;SDS011;2975;50.956;6.962;2024-03-02T11:11:55;1.57;;;1.03;;
5898;SDS011;2975;50.956;6.962;2024-03-02T11:14:23;1.53;;;1.10;;
5898;SDS011;2975;50.956;6.962;2024-03-02T11:16:50;4.73;;;1.40;;
5898;SDS011;2975;50.956;6.962;2024-03-02T11:19:17;2.85;;;1.70;;
5898;SDS011;2975;50.956;6.962;2024-03-02T11:21:43;1.40;;;1.07;;
5898;SDS011;2975;50.956;6.962;2024-03-02T11:27:08;6.53;;;1.20;;
5898;SDS011;2975;50.956;6.962;2024-03-02T11:32:14;1.00;;;0.90;;
5898;SDS011;2975;50.956;6.962;2024-03-02T11:34:44;1.30;;;1.10;;
5898;SDS011;2975;50.956;6.962;2024-03-02T11:37:14;4.97;;;1.10;;
5898;SDS011;2975;50.956;6.962;2024-03-02T11:39:42;1.60;;;0.90;;
5898;SDS011;2975;50.956;6.962;2024-03-02T11:42:20;1.50;;;1.10;;
5898;SDS011;2975;50.956;6.962;2024-03-02T11:44:47;5.97;;;1.80;;
5898;SDS011;2975;50.956;6.962;2024-03-02T11:47:31;17.73;;;5.47;;
5898;SDS011;2975;50.956;6.962;2024-03-02T11:49:58;17.27;;;5.30;;
5898;SDS011;2975;50.956;6.962;2024-03-02T11:52:24;10.68;;;4.13;;
5898;SDS011;2975;50.956;6.962;2024-03-02T11:54:51;8.73;;;2.37;;
5898;SDS011;2975;50.956;6.962;2024-03-02T11:57:19;7.68;;;3.28;;
5898;SDS011;2975;50.956;6.962;2024-03-02T11:59:47;8.53;;;3.20;;
5898;SDS011;2975;50.956;6.962;2024-03-02T12:02:20;1.50;;;1.40;;
5898;SDS011;2975;50.956;6.962;2024-03-02T12:04:48;6.87;;;2.67;;
5898;SDS011;2975;50.956;6.962;2024-03-02T12:07:21;5.17;;;1.90;;
5898;SDS011;2975;50.956;6.962;2024-03-02T12:09:47;3.23;;;1.90;;
5898;SDS011;2975;50.956;6.962;2024-03-02T12:12:13;6.13;;;2.03;;
5898;SDS011;2975;50.956;6.962;2024-03-02T12:14:49;4.93;;;2.07;;
5898;SDS011;2975;50.956;6.962;2024-03-02T12:17:15;2.57;;;1.30;;
5898;SDS011;2975;50.956;6.962;2024-03-02T12:19:41;1.65;;;1.27;;
5898;SDS011;2975;50.956;6.962;2024-03-02T12:22:09;4.00;;;1.60;;
5898;SDS011;2975;50.956;6.962;2024-03-02T12:24:35;2.72;;;1.30;;
5898;SDS011;2975;50.956;6.962;2024-03-02T12:27:24;3.83;;;1.33;;
5898;SDS011;2975;50.956;6.962;2024-03-02T12:29:51;5.18;;;1.67;;
5898;SDS011;2975;50.956;6.962;2024-03-02T12:32:17;4.57;;;1.43;;
5898;SDS011;2975;50.956;6.962;2024-03-02T12:34:46;3.53;;;1.50;;
5898;SDS011;2975;50.956;6.962;2024-03-02T12:37:12;5.40;;;1.10;;
5898;SDS011;2975;50.956;6.962;2024-03-02T12:39:38;3.60;;;1.20;;
5898;SDS011;2975;50.956;6.962;2024-03-02T12:42:04;3.20;;;1.07;;
5898;SDS011;2975;50.956;6.962;2024-03-02T12:44:30;5.40;;;1.10;;
5898;SDS011;2975;50.956;6.962;2024-03-02T12:46:56;2.93;;;1.20;;
5898;SDS011;2975;50.956;6.962;2024-03-02T12:49:22;1.47;;;0.63;;
5898;SDS011;2975;50.956;6.962;2024-03-02T12:51:49;1.60;;;0.77;;
5898;SDS011;2975;50.956;6.962;2024-03-02T12:54:18;1.53;;;0.80;;
5898;SDS011;2975;50.956;6.962;2024-03-02T12:56:48;4.17;;;1.10;;
5898;SDS011;2975;50.956;6.962;2024-03-02T12:59:21;3.57;;;0.97;;
5898;SDS011;2975;50.956;6.962;2024-03-02T13:01:54;5.30;;;1.03;;
5898;SDS011;2975;50.956;6.962;2024-03-02T13:06:53;1.60;;;0.87;;
5898;SDS011;2975;50.956;6.962;2024-03-02T13:09:26;0.80;;;0.80;;
5898;SDS011;2975;50.956;6.962;2024-03-02T13:11:52;1.77;;;1.00;;
5898;SDS011;2975;50.956;6.962;2024-03-02T13:14:21;1.97;;;1.00;;
5898;SDS011;2975;50.956;6.962;2024-03-02T13:16:49;1.63;;;1.00;;
5898;SDS011;2975;50.956;6.962;2024-03-02T13:19:17;0.93;;;0.93;;
5898;SDS011;2975;50.956;6.962;2024-03-02T13:21:46;2.50;;;1.20;;
5898;SDS011;2975;50.956;6.962;2024-03-02T13:24:12;1.30;;;1.00;;
5898;SDS011;2975;50.956;6.962;2024-03-02T13:26:38;0.90;;;0.90;;
5898;SDS011;2975;50.956;6.962;2024-03-02T13:29:05;3.17;;;1.10;;
5898;SDS011;2975;50.956;6.962;2024-03-02T13:31:31;4.73;;;1.13;;
5898;SDS011;2975;50.956;6.962;2024-03-02T13:33:57;1.27;;;1.13;;
5898;SDS011;2975;50.956;6.962;2024-03-02T13:36:23;1.10;;;1.10;;
5898;SDS011;2975;50.956;6.962;2024-03-02T13:38:49;1.83;;;1.07;;
5898;SDS011;2975;50.956;6.962;2024-03-02T13:41:15;0.97;;;0.97;;
5898;SDS011;2975;50.956;6.962;2024-03-02T13:43:41;1.03;;;0.80;;
5898;SDS011;2975;50.956;6.962;2024-03-02T13:46:09;1.47;;;1.00;;
5898;SDS011;2975;50.956;6.962;2024-03-02T13:48:35;1.23;;;0.83;;
5898;SDS011;2975;50.956;6.962;2024-03-02T13:51:02;1.50;;;1.10;;
5898;SDS011;2975;50.956;6.962;2024-03-02T13:53:29;1.00;;;0.87;;
5898;SDS011;2975;50.956;6.962;2024-03-02T13:55:56;1.20;;;1.10;;
5898;SDS011;2975;50.956;6.962;2024-03-02T13:58:22;0.90;;;0.80;;
5898;SDS011;2975;50.956;6.962;2024-03-02T14:00:48;0.93;;;0.90;;
5898;SDS011;2975;50.956;6.962;2024-03-02T14:03:14;4.33;;;1.20;;
5898;SDS011;2975;50.956;6.962;2024-03-02T14:05:40;4.00;;;0.90;;
5898;SDS011;2975;50.956;6.962;2024-03-02T14:08:07;1.17;;;1.10;;
5898;SDS011;2975;50.956;6.962;2024-03-02T14:10:32;0.80;;;0.80;;
5898;SDS011;2975;50.956;6.962;2024-03-02T14:13:00;0.63;;;0.63;;
5898;SDS011;2975;50.956;6.962;2024-03-02T14:15:27;0.90;;;0.90;;
5898;SDS011;2975;50.956;6.962;2024-03-02T14:17:55;0.67;;;0.67;;
5898;SDS011;2975;50.956;6.962;2024-03-02T14:20:21;0.60;;;0.60;;
5898;SDS011;2975;50.956;6.962;2024-03-02T14:22:48;1.53;;;1.03;;
5898;SDS011;2975;50.956;6.962;2024-03-02T14:25:14;1.63;;;0.80;;
5898;SDS011;2975;50.956;6.962;2024-03-02T14:27:41;1.17;;;0.90;;
5898;SDS011;2975;50.956;6.962;2024-03-02T14:30:08;1.40;;;0.90;;
5898;SDS011;2975;50.956;6.962;2024-03-02T14:32:34;1.33;;;1.10;;
5898;SDS011;2975;50.956;6.962;2024-03-02T14:35:00;0.80;;;0.80;;
5898;SDS011;2975;50.956;6.962;2024-03-02T14:37:27;2.93;;;1.00;;
5898;SDS011;2975;50.956;6.962;2024-03-02T14:39:56;0.97;;;0.87;;
5898;SDS011;2975;50.956;6.962;2024-03-02T14:42:22;0.77;;;0.77;;
5898;SDS011;2975;50.956;6.962;2024-03-02T14:44:48;0.87;;;0.87;;
5898;SDS011;2975;50.956;6.962;2024-03-02T14:47:14;1.10;;;1.00;;
5898;SDS011;2975;50.956;6.962;2024-03-02T14:49:40;2.30;;;1.20;;
5898;SDS011;2975;50.956;6.962;2024-03-02T14:52:07;0.80;;;0.80;;
5898;SDS011;2975;50.956;6.962;2024-03-02T14:54:34;2.77;;;1.00;;
5898;SDS011;2975;50.956;6.962;2024-03-02T14:57:00;1.57;;;1.10;;
5898;SDS011;2975;50.956;6.962;2024-03-02T14:59:27;1.37;;;0.90;;
5898;SDS011;2975;50.956;6.962;2024-03-02T15:01:53;0.93;;;0.93;;
5898;SDS011;2975;50.956;6.962;2024-03-02T15:04:19;1.27;;;1.07;;
5898;SDS011;2975;50.956;6.962;2024-03-02T15:06:45;0.80;;;0.80;;
5898;SDS011;2975;50.956;6.962;2024-03-02T15:09:11;2.33;;;1.03;;
5898;SDS011;2975;50.956;6.962;2024-03-02T15:11:37;1.67;;;0.90;;
5898;SDS011;2975;50.956;6.962;2024-03-02T15:14:04;0.90;;;0.70;;
5898;SDS011;2975;50.956;6.962;2024-03-02T15:16:30;1.80;;;1.30;;
5898;SDS011;2975;50.956;6.962;2024-03-02T15:18:56;0.93;;;0.93;;
5898;SDS011;2975;50.956;6.962;2024-03-02T15:21:22;1.13;;;1.00;;
5898;SDS011;2975;50.956;6.962;2024-03-02T15:23:49;1.50;;;1.00;;
5898;SDS011;2975;50.956;6.962;2024-03-02T15:26:15;1.20;;;1.10;;